sensor_id;sensor_type;location;lat;lon;timestamp;P1;durP1;ratioP1;P2;durP2;ratioP2
19193;SDS011;9729;52.296;13.260;2022-10-17T00:00:37;6.53;;;4.00;;
19193;SDS011;9729;52.296;13.260;2022-10-17T00:03:03;5.10;;;4.27;;
19193;SDS011;9729;52.296;13.260;2022-10-17T00:05:30;5.87;;;4.50;;
19193;SDS011;9729;52.296;13.260;2022-10-17T00:07:56;7.47;;;3.90;;
19193;SDS011;9729;52.296;13.260;2022-10-17T00:10:23;7.37;;;4.80;;
19193;SDS011;9729;52.296;13.260;2022-10-17T00:12:51;9.13;;;4.83;;
19193;SDS011;9729;52.296;13.260;2022-10-17T00:15:20;7.23;;;4.50;;
19193;SDS011;9729;52.296;13.260;2022-10-17T00:17:47;6.47;;;4.90;;
19193;SDS011;9729;52.296;13.260;2022-10-17T00:20:14;8.03;;;4.40;;
19193;SDS011;9729;52.296;13.260;2022-10-17T00:22:40;6.33;;;4.60;;
19193;SDS011;9729;52.296;13.260;2022-10-17T00:25:07;5.43;;;4.87;;
19193;SDS011;9729;52.296;13.260;2022-10-17T00:27:34;5.50;;;4.57;;
19193;SDS011;9729;52.296;13.260;2022-10-17T00:30:02;6.27;;;5.03;;
19193;SDS011;9729;52.296;13.260;2022-10-17T00:32:30;6.13;;;5.10;;
19193;SDS011;9729;52.296;13.260;2022-10-17T00:34:57;7.97;;;5.10;;
19193;SDS011;9729;52.296;13.260;2022-10-17T00:37:23;7.27;;;4.87;;
19193;SDS011;9729;52.296;13.260;2022-10-17T00:39:50;6.67;;;5.97;;
19193;SDS011;9729;52.296;13.260;2022-10-17T00:42:16;6.77;;;5.70;;
19193;SDS011;9729;52.296;13.260;2022-10-17T00:47:36;6.50;;;5.67;;
19193;SDS011;9729;52.296;13.260;2022-10-17T00:50:03;14.43;;;5.30;;
19193;SDS011;9729;52.296;13.260;2022-10-17T00:52:30;8.50;;;6.13;;
19193;SDS011;9729;52.296;13.260;2022-10-17T00:54:58;7.00;;;5.77;;
19193;SDS011;9729;52.296;13.260;2022-10-17T00:57:28;8.80;;;5.97;;
19193;SDS011;9729;52.296;13.260;2022-10-17T00:59:56;6.90;;;5.70;;
19193;SDS011;9729;52.296;13.260;2022-10-17T01:02:25;7.07;;;6.17;;
19193;SDS011;9729;52.296;13.260;2022-10-17T01:04:52;7.93;;;5.80;;
19193;SDS011;9729;52.296;13.260;2022-10-17T01:07:19;7.77;;;5.97;;
19193;SDS011;9729;52.296;13.260;2022-10-17T01:09:46;12.67;;;6.20;;
19193;SDS011;9729;52.296;13.260;2022-10-17T01:12:14;10.53;;;6.60;;
19193;SDS011;9729;52.296;13.260;2022-10-17T01:14:45;11.43;;;6.13;;
19193;SDS011;9729;52.296;13.260;2022-10-17T01:17:21;8.77;;;5.97;;
19193;SDS011;9729;52.296;13.260;2022-10-17T01:19:58;8.30;;;6.33;;
19193;SDS011;9729;52.296;13.260;2022-10-17T01:22:54;8.07;;;6.80;;
19193;SDS011;9729;52.296;13.260;2022-10-17T01:25:27;9.27;;;5.53;;
19193;SDS011;9729;52.296;13.260;2022-10-17T01:27:59;5.90;;;5.30;;
19193;SDS011;9729;52.296;13.260;2022-10-17T01:33:21;9.63;;;6.33;;
19193;SDS011;9729;52.296;13.260;2022-10-17T01:35:57;14.73;;;6.80;;
19193;SDS011;9729;52.296;13.260;2022-10-17T01:41:48;10.97;;;6.03;;
19193;SDS011;9729;52.296;13.260;2022-10-17T01:44:17;11.30;;;6.53;;
19193;SDS011;9729;52.296;13.260;2022-10-17T01:46:47;11.20;;;5.90;;
19193;SDS011;9729;52.296;13.260;2022-10-17T01:49:15;6.40;;;5.67;;
19193;SDS011;9729;52.296;13.260;2022-10-17T01:51:44;7.67;;;6.83;;
19193;SDS011;9729;52.296;13.260;2022-10-17T01:54:14;8.63;;;5.80;;
19193;SDS011;9729;52.296;13.260;2022-10-17T01:56:43;8.60;;;5.77;;
19193;SDS011;9729;52.296;13.260;2022-10-17T01:59:11;10.27;;;6.17;;
19193;SDS011;9729;52.296;13.260;2022-10-17T02:01:41;9.83;;;5.90;;
19193;SDS011;9729;52.296;13.260;2022-10-17T02:04:10;9.87;;;6.87;;
19193;SDS011;9729;52.296;13.260;2022-10-17T02:06:37;10.83;;;5.77;;
19193;SDS011;9729;52.296;13.260;2022-10-17T02:09:14;8.03;;;5.60;;
19193;SDS011;9729;52.296;13.260;2022-10-17T02:11:41;11.83;;;5.53;;
19193;SDS011;9729;52.296;13.260;2022-10-17T02:14:16;11.37;;;5.97;;
19193;SDS011;9729;52.296;13.260;2022-10-17T02:16:48;13.00;;;5.53;;
19193;SDS011;9729;52.296;13.260;2022-10-17T02:19:32;7.33;;;6.20;;
19193;SDS011;9729;52.296;13.260;2022-10-17T02:22:03;10.30;;;6.70;;
19193;SDS011;9729;52.296;13.260;2022-10-17T02:24:36;7.50;;;6.13;;
19193;SDS011;9729;52.296;13.260;2022-10-17T02:27:09;9.67;;;7.50;;
19193;SDS011;9729;52.296;13.260;2022-10-17T02:29:39;8.90;;;7.30;;
19193;SDS011;9729;52.296;13.260;2022-10-17T02:32:12;10.20;;;6.60;;
19193;SDS011;9729;52.296;13.260;2022-10-17T02:34:43;9.53;;;7.30;;
19193;SDS011;9729;52.296;13.260;2022-10-17T02:37:11;8.30;;;7.00;;
19193;SDS011;9729;52.296;13.260;2022-10-17T02:39:40;9.87;;;7.10;;
19193;SDS011;9729;52.296;13.260;2022-10-17T02:42:08;8.60;;;7.17;;
19193;SDS011;9729;52.296;13.260;2022-10-17T02:44:36;8.70;;;7.33;;
19193;SDS011;9729;52.296;13.260;2022-10-17T02:47:04;14.03;;;7.67;;
19193;SDS011;9729;52.296;13.260;2022-10-17T02:49:35;11.50;;;6.77;;
19193;SDS011;9729;52.296;13.260;2022-10-17T02:52:06;8.30;;;6.83;;
19193;SDS011;9729;52.296;13.260;2022-10-17T02:54:36;6.93;;;6.17;;
19193;SDS011;9729;52.296;13.260;2022-10-17T02:57:07;8.13;;;6.33;;
19193;SDS011;9729;52.296;13.260;2022-10-17T02:59:37;9.30;;;6.83;;
19193;SDS011;9729;52.296;13.260;2022-10-17T03:02:05;8.57;;;7.20;;
19193;SDS011;9729;52.296;13.260;2022-10-17T03:04:32;8.37;;;6.77;;
19193;SDS011;9729;52.296;13.260;2022-10-17T03:06:59;11.50;;;7.57;;
19193;SDS011;9729;52.296;13.260;2022-10-17T03:09:26;14.03;;;7.90;;
19193;SDS011;9729;52.296;13.260;2022-10-17T03:11:53;9.37;;;7.70;;
19193;SDS011;9729;52.296;13.260;2022-10-17T03:14:19;9.47;;;7.87;;
19193;SDS011;9729;52.296;13.260;2022-10-17T03:16:46;15.60;;;7.60;;
19193;SDS011;9729;52.296;13.260;2022-10-17T03:19:12;7.97;;;7.13;;
19193;SDS011;9729;52.296;13.260;2022-10-17T03:21:38;11.77;;;7.00;;
19193;SDS011;9729;52.296;13.260;2022-10-17T03:24:05;8.53;;;7.33;;
19193;SDS011;9729;52.296;13.260;2022-10-17T03:26:33;14.83;;;7.20;;
19193;SDS011;9729;52.296;13.260;2022-10-17T03:28:59;11.13;;;8.20;;
19193;SDS011;9729;52.296;13.260;2022-10-17T03:31:27;9.53;;;7.40;;
19193;SDS011;9729;52.296;13.260;2022-10-17T03:33:53;14.33;;;7.10;;
19193;SDS011;9729;52.296;13.260;2022-10-17T03:36:20;10.20;;;8.10;;
19193;SDS011;9729;52.296;13.260;2022-10-17T03:38:46;8.60;;;7.63;;
19193;SDS011;9729;52.296;13.260;2022-10-17T03:41:13;8.27;;;7.20;;
19193;SDS011;9729;52.296;13.260;2022-10-17T03:43:41;9.63;;;7.50;;
19193;SDS011;9729;52.296;13.260;2022-10-17T03:46:07;8.63;;;7.50;;
19193;SDS011;9729;52.296;13.260;2022-10-17T03:48:34;8.67;;;7.23;;
19193;SDS011;9729;52.296;13.260;2022-10-17T03:51:01;10.37;;;8.27;;
19193;SDS011;9729;52.296;13.260;2022-10-17T03:53:28;11.63;;;7.87;;
19193;SDS011;9729;52.296;13.260;2022-10-17T03:55:55;8.83;;;7.73;;
19193;SDS011;9729;52.296;13.260;2022-10-17T03:58:21;9.73;;;7.57;;
19193;SDS011;9729;52.296;13.260;2022-10-17T04:00:49;10.67;;;7.17;;
19193;SDS011;9729;52.296;13.260;2022-10-17T04:03:16;8.37;;;7.30;;
19193;SDS011;9729;52.296;13.260;2022-10-17T04:05:43;8.63;;;7.10;;
19193;SDS011;9729;52.296;13.260;2022-10-17T04:08:09;11.40;;;6.63;;
19193;SDS011;9729;52.296;13.260;2022-10-17T04:10:35;8.53;;;7.40;;
19193;SDS011;9729;52.296;13.260;2022-10-17T04:13:02;11.63;;;7.47;;
19193;SDS011;9729;52.296;13.260;2022-10-17T04:15:30;7.90;;;7.07;;
19193;SDS011;9729;52.296;13.260;2022-10-17T04:17:58;9.00;;;7.20;;
19193;SDS011;9729;52.296;13.260;2022-10-17T04:20:25;10.93;;;7.33;;
19193;SDS011;9729;52.296;13.260;2022-10-17T04:22:51;14.50;;;7.40;;
19193;SDS011;9729;52.296;13.260;2022-10-17T04:25:19;9.80;;;6.60;;
19193;SDS011;9729;52.296;13.260;2022-10-17T04:27:45;14.77;;;7.33;;
19193;SDS011;9729;52.296;13.260;2022-10-17T04:30:13;8.63;;;6.77;;
19193;SDS011;9729;52.296;13.260;2022-10-17T04:32:40;11.87;;;7.33;;
19193;SDS011;9729;52.296;13.260;2022-10-17T04:35:08;10.53;;;8.20;;
19193;SDS011;9729;52.296;13.260;2022-10-17T04:37:34;11.10;;;8.50;;
19193;SDS011;9729;52.296;13.260;2022-10-17T04:40:01;8.00;;;6.67;;
19193;SDS011;9729;52.296;13.260;2022-10-17T04:42:27;9.70;;;7.20;;
19193;SDS011;9729;52.296;13.260;2022-10-17T04:44:54;11.67;;;7.77;;
19193;SDS011;9729;52.296;13.260;2022-10-17T04:47:20;9.37;;;7.77;;
19193;SDS011;9729;52.296;13.260;2022-10-17T04:49:46;9.20;;;7.40;;
19193;SDS011;9729;52.296;13.260;2022-10-17T04:52:14;10.37;;;7.17;;
19193;SDS011;9729;52.296;13.260;2022-10-17T04:54:41;11.27;;;7.53;;
19193;SDS011;9729;52.296;13.260;2022-10-17T04:57:09;10.90;;;8.17;;
19193;SDS011;9729;52.296;13.260;2022-10-17T04:59:35;10.53;;;8.13;;
19193;SDS011;9729;52.296;13.260;2022-10-17T05:02:01;14.10;;;9.10;;
19193;SDS011;9729;52.296;13.260;2022-10-17T05:04:28;16.20;;;10.13;;
19193;SDS011;9729;52.296;13.260;2022-10-17T05:06:54;19.50;;;11.00;;
19193;SDS011;9729;52.296;13.260;2022-10-17T05:09:22;18.93;;;11.90;;
19193;SDS011;9729;52.296;13.260;2022-10-17T05:11:48;16.20;;;13.17;;
19193;SDS011;9729;52.296;13.260;2022-10-17T05:14:14;17.70;;;13.87;;
19193;SDS011;9729;52.296;13.260;2022-10-17T05:16:41;28.50;;;14.50;;
19193;SDS011;9729;52.296;13.260;2022-10-17T05:19:07;22.30;;;15.27;;
19193;SDS011;9729;52.296;13.260;2022-10-17T05:21:34;27.30;;;13.80;;
19193;SDS011;9729;52.296;13.260;2022-10-17T05:24:03;20.37;;;13.90;;
19193;SDS011;9729;52.296;13.260;2022-10-17T05:26:31;22.30;;;14.30;;
19193;SDS011;9729;52.296;13.260;2022-10-17T05:28:58;21.27;;;13.30;;
19193;SDS011;9729;52.296;13.260;2022-10-17T05:31:26;23.73;;;13.53;;
19193;SDS011;9729;52.296;13.260;2022-10-17T05:33:53;27.17;;;14.17;;
19193;SDS011;9729;52.296;13.260;2022-10-17T05:36:19;21.27;;;13.50;;
19193;SDS011;9729;52.296;13.260;2022-10-17T05:38:47;16.77;;;12.73;;
19193;SDS011;9729;52.296;13.260;2022-10-17T05:41:14;21.03;;;13.23;;
19193;SDS011;9729;52.296;13.260;2022-10-17T05:43:42;20.57;;;13.30;;
19193;SDS011;9729;52.296;13.260;2022-10-17T05:46:08;20.33;;;12.67;;
19193;SDS011;9729;52.296;13.260;2022-10-17T05:48:35;22.40;;;13.17;;
19193;SDS011;9729;52.296;13.260;2022-10-17T05:51:02;22.23;;;13.50;;
19193;SDS011;9729;52.296;13.260;2022-10-17T05:53:31;18.97;;;12.87;;
19193;SDS011;9729;52.296;13.260;2022-10-17T05:55:58;17.70;;;12.77;;
19193;SDS011;9729;52.296;13.260;2022-10-17T05:58:26;17.87;;;12.23;;
19193;SDS011;9729;52.296;13.260;2022-10-17T06:00:57;19.57;;;11.80;;
19193;SDS011;9729;52.296;13.260;2022-10-17T06:03:24;15.40;;;11.40;;
19193;SDS011;9729;52.296;13.260;2022-10-17T06:05:50;18.70;;;12.67;;
19193;SDS011;9729;52.296;13.260;2022-10-17T06:08:17;16.50;;;11.97;;
19193;SDS011;9729;52.296;13.260;2022-10-17T06:10:45;15.70;;;12.30;;
19193;SDS011;9729;52.296;13.260;2022-10-17T06:13:12;15.20;;;10.77;;
19193;SDS011;9729;52.296;13.260;2022-10-17T06:15:38;14.93;;;11.60;;
19193;SDS011;9729;52.296;13.260;2022-10-17T06:18:07;15.33;;;12.30;;
19193;SDS011;9729;52.296;13.260;2022-10-17T06:20:34;15.30;;;10.60;;
19193;SDS011;9729;52.296;13.260;2022-10-17T06:23:00;13.73;;;10.93;;
19193;SDS011;9729;52.296;13.260;2022-10-17T06:25:26;19.80;;;11.13;;
19193;SDS011;9729;52.296;13.260;2022-10-17T06:27:53;14.67;;;11.10;;
19193;SDS011;9729;52.296;13.260;2022-10-17T06:30:19;13.57;;;10.70;;
19193;SDS011;9729;52.296;13.260;2022-10-17T06:32:46;15.63;;;9.97;;
19193;SDS011;9729;52.296;13.260;2022-10-17T06:35:13;11.60;;;9.60;;
19193;SDS011;9729;52.296;13.260;2022-10-17T06:37:40;12.93;;;9.00;;
19193;SDS011;9729;52.296;13.260;2022-10-17T06:40:09;12.73;;;8.33;;
19193;SDS011;9729;52.296;13.260;2022-10-17T06:42:36;10.33;;;8.40;;
19193;SDS011;9729;52.296;13.260;2022-10-17T06:45:02;12.80;;;8.30;;
19193;SDS011;9729;52.296;13.260;2022-10-17T06:47:29;10.97;;;8.67;;
19193;SDS011;9729;52.296;13.260;2022-10-17T06:49:55;10.00;;;8.63;;
19193;SDS011;9729;52.296;13.260;2022-10-17T06:52:23;11.07;;;8.10;;
19193;SDS011;9729;52.296;13.260;2022-10-17T06:54:50;17.30;;;9.57;;
19193;SDS011;9729;52.296;13.260;2022-10-17T06:57:16;12.73;;;8.53;;
19193;SDS011;9729;52.296;13.260;2022-10-17T06:59:43;13.83;;;8.27;;
19193;SDS011;9729;52.296;13.260;2022-10-17T07:02:10;10.93;;;8.10;;
19193;SDS011;9729;52.296;13.260;2022-10-17T07:04:37;11.47;;;7.43;;
19193;SDS011;9729;52.296;13.260;2022-10-17T07:07:05;10.60;;;7.67;;
19193;SDS011;9729;52.296;13.260;2022-10-17T07:09:33;13.13;;;7.00;;
19193;SDS011;9729;52.296;13.260;2022-10-17T07:11:59;9.63;;;7.07;;
19193;SDS011;9729;52.296;13.260;2022-10-17T07:14:26;9.10;;;6.73;;
19193;SDS011;9729;52.296;13.260;2022-10-17T07:16:55;7.73;;;6.73;;
19193;SDS011;9729;52.296;13.260;2022-10-17T07:19:22;9.57;;;6.27;;
19193;SDS011;9729;52.296;13.260;2022-10-17T07:21:48;6.50;;;5.67;;
19193;SDS011;9729;52.296;13.260;2022-10-17T07:24:15;8.40;;;6.17;;
19193;SDS011;9729;52.296;13.260;2022-10-17T07:26:43;10.10;;;6.60;;
19193;SDS011;9729;52.296;13.260;2022-10-17T07:29:10;6.07;;;5.47;;
19193;SDS011;9729;52.296;13.260;2022-10-17T07:31:36;7.60;;;6.00;;
19193;SDS011;9729;52.296;13.260;2022-10-17T07:34:03;9.90;;;5.10;;
19193;SDS011;9729;52.296;13.260;2022-10-17T07:36:29;7.40;;;4.77;;
19193;SDS011;9729;52.296;13.260;2022-10-17T07:38:55;6.33;;;5.20;;
19193;SDS011;9729;52.296;13.260;2022-10-17T07:41:21;7.50;;;5.33;;
19193;SDS011;9729;52.296;13.260;2022-10-17T07:43:49;10.87;;;5.37;;
19193;SDS011;9729;52.296;13.260;2022-10-17T07:46:17;6.83;;;4.80;;
19193;SDS011;9729;52.296;13.260;2022-10-17T07:48:43;6.87;;;5.03;;
19193;SDS011;9729;52.296;13.260;2022-10-17T07:51:10;6.10;;;4.97;;
19193;SDS011;9729;52.296;13.260;2022-10-17T07:53:36;6.20;;;4.33;;
19193;SDS011;9729;52.296;13.260;2022-10-17T07:56:04;6.37;;;4.60;;
19193;SDS011;9729;52.296;13.260;2022-10-17T07:58:31;7.43;;;4.30;;
19193;SDS011;9729;52.296;13.260;2022-10-17T08:01:00;9.83;;;4.13;;
19193;SDS011;9729;52.296;13.260;2022-10-17T08:03:27;6.40;;;3.67;;
19193;SDS011;9729;52.296;13.260;2022-10-17T08:05:55;9.07;;;4.33;;
19193;SDS011;9729;52.296;13.260;2022-10-17T08:08:22;8.27;;;4.00;;
19193;SDS011;9729;52.296;13.260;2022-10-17T08:10:49;5.37;;;3.90;;
19193;SDS011;9729;52.296;13.260;2022-10-17T08:13:15;7.30;;;4.20;;
19193;SDS011;9729;52.296;13.260;2022-10-17T08:15:41;6.07;;;3.53;;
19193;SDS011;9729;52.296;13.260;2022-10-17T08:18:09;7.53;;;3.83;;
19193;SDS011;9729;52.296;13.260;2022-10-17T08:20:39;6.23;;;3.67;;
19193;SDS011;9729;52.296;13.260;2022-10-17T08:23:06;6.40;;;3.70;;
19193;SDS011;9729;52.296;13.260;2022-10-17T08:25:32;10.97;;;4.03;;
19193;SDS011;9729;52.296;13.260;2022-10-17T08:27:58;9.23;;;3.70;;
19193;SDS011;9729;52.296;13.260;2022-10-17T08:30:25;6.57;;;3.73;;
19193;SDS011;9729;52.296;13.260;2022-10-17T08:32:54;8.50;;;4.17;;
19193;SDS011;9729;52.296;13.260;2022-10-17T08:35:22;7.57;;;4.00;;
19193;SDS011;9729;52.296;13.260;2022-10-17T08:37:48;8.23;;;4.00;;
19193;SDS011;9729;52.296;13.260;2022-10-17T08:40:16;5.33;;;3.60;;
19193;SDS011;9729;52.296;13.260;2022-10-17T08:42:48;4.77;;;3.50;;
19193;SDS011;9729;52.296;13.260;2022-10-17T08:45:23;7.63;;;4.07;;
19193;SDS011;9729;52.296;13.260;2022-10-17T08:47:56;6.37;;;3.57;;
19193;SDS011;9729;52.296;13.260;2022-10-17T08:50:27;5.17;;;3.27;;
19193;SDS011;9729;52.296;13.260;2022-10-17T08:52:57;6.07;;;3.63;;
19193;SDS011;9729;52.296;13.260;2022-10-17T08:55:31;5.47;;;3.40;;
19193;SDS011;9729;52.296;13.260;2022-10-17T08:57:59;5.47;;;3.70;;
19193;SDS011;9729;52.296;13.260;2022-10-17T09:00:25;35.77;;;4.67;;
19193;SDS011;9729;52.296;13.260;2022-10-17T09:02:56;7.50;;;4.17;;
19193;SDS011;9729;52.296;13.260;2022-10-17T09:05:36;6.10;;;3.33;;
19193;SDS011;9729;52.296;13.260;2022-10-17T09:08:13;3.47;;;3.17;;
19193;SDS011;9729;52.296;13.260;2022-10-17T09:10:52;4.57;;;3.33;;
19193;SDS011;9729;52.296;13.260;2022-10-17T09:13:23;9.63;;;3.77;;
19193;SDS011;9729;52.296;13.260;2022-10-17T09:15:58;6.53;;;3.20;;
19193;SDS011;9729;52.296;13.260;2022-10-17T09:18:36;6.67;;;3.00;;
19193;SDS011;9729;52.296;13.260;2022-10-17T09:21:09;11.20;;;3.90;;
19193;SDS011;9729;52.296;13.260;2022-10-17T09:23:42;10.80;;;3.60;;
19193;SDS011;9729;52.296;13.260;2022-10-17T09:26:10;5.57;;;3.00;;
19193;SDS011;9729;52.296;13.260;2022-10-17T09:28:38;4.97;;;3.00;;
19193;SDS011;9729;52.296;13.260;2022-10-17T09:31:08;4.77;;;3.00;;
19193;SDS011;9729;52.296;13.260;2022-10-17T09:33:37;5.20;;;2.80;;
19193;SDS011;9729;52.296;13.260;2022-10-17T09:36:09;11.43;;;3.27;;
19193;SDS011;9729;52.296;13.260;2022-10-17T09:38:39;4.07;;;2.20;;
19193;SDS011;9729;52.296;13.260;2022-10-17T09:41:12;6.83;;;2.97;;
19193;SDS011;9729;52.296;13.260;2022-10-17T09:43:41;4.83;;;2.70;;
19193;SDS011;9729;52.296;13.260;2022-10-17T09:46:10;4.20;;;2.97;;
19193;SDS011;9729;52.296;13.260;2022-10-17T09:48:40;3.80;;;2.30;;
19193;SDS011;9729;52.296;13.260;2022-10-17T09:51:10;3.03;;;2.60;;
19193;SDS011;9729;52.296;13.260;2022-10-17T09:53:37;6.53;;;2.40;;
19193;SDS011;9729;52.296;13.260;2022-10-17T09:56:06;4.57;;;2.47;;
19193;SDS011;9729;52.296;13.260;2022-10-17T09:58:41;3.90;;;2.40;;
19193;SDS011;9729;52.296;13.260;2022-10-17T10:01:16;4.70;;;3.10;;
19193;SDS011;9729;52.296;13.260;2022-10-17T10:03:43;6.43;;;3.30;;
19193;SDS011;9729;52.296;13.260;2022-10-17T10:06:13;4.80;;;2.67;;
19193;SDS011;9729;52.296;13.260;2022-10-17T10:08:48;6.87;;;2.80;;
19193;SDS011;9729;52.296;13.260;2022-10-17T10:11:16;4.97;;;2.17;;
19193;SDS011;9729;52.296;13.260;2022-10-17T10:13:44;12.10;;;2.90;;
19193;SDS011;9729;52.296;13.260;2022-10-17T10:16:14;5.17;;;2.97;;
19193;SDS011;9729;52.296;13.260;2022-10-17T10:18:42;4.93;;;2.47;;
19193;SDS011;9729;52.296;13.260;2022-10-17T10:21:10;5.50;;;2.17;;
19193;SDS011;9729;52.296;13.260;2022-10-17T10:23:39;5.03;;;2.90;;
19193;SDS011;9729;52.296;13.260;2022-10-17T10:26:17;4.57;;;2.50;;
19193;SDS011;9729;52.296;13.260;2022-10-17T10:28:54;4.93;;;2.30;;
19193;SDS011;9729;52.296;13.260;2022-10-17T10:31:25;4.70;;;2.43;;
19193;SDS011;9729;52.296;13.260;2022-10-17T10:33:55;6.67;;;2.67;;
19193;SDS011;9729;52.296;13.260;2022-10-17T10:36:22;4.87;;;2.73;;
19193;SDS011;9729;52.296;13.260;2022-10-17T10:38:52;6.97;;;2.27;;
19193;SDS011;9729;52.296;13.260;2022-10-17T10:41:20;3.33;;;2.53;;
19193;SDS011;9729;52.296;13.260;2022-10-17T10:43:47;5.77;;;3.03;;
19193;SDS011;9729;52.296;13.260;2022-10-17T10:46:15;6.63;;;2.60;;
19193;SDS011;9729;52.296;13.260;2022-10-17T10:48:49;8.73;;;3.03;;
19193;SDS011;9729;52.296;13.260;2022-10-17T10:51:18;8.17;;;2.40;;
19193;SDS011;9729;52.296;13.260;2022-10-17T10:53:48;3.77;;;2.23;;
19193;SDS011;9729;52.296;13.260;2022-10-17T10:56:18;2.50;;;2.30;;
19193;SDS011;9729;52.296;13.260;2022-10-17T10:58:48;8.10;;;2.50;;
19193;SDS011;9729;52.296;13.260;2022-10-17T11:01:19;3.80;;;2.33;;
19193;SDS011;9729;52.296;13.260;2022-10-17T11:03:53;6.50;;;3.10;;
19193;SDS011;9729;52.296;13.260;2022-10-17T11:06:24;6.07;;;3.70;;
19193;SDS011;9729;52.296;13.260;2022-10-17T11:08:57;7.77;;;2.90;;
19193;SDS011;9729;52.296;13.260;2022-10-17T11:11:32;4.33;;;3.20;;
19193;SDS011;9729;52.296;13.260;2022-10-17T11:14:04;4.87;;;3.27;;
19193;SDS011;9729;52.296;13.260;2022-10-17T11:16:34;5.23;;;2.73;;
19193;SDS011;9729;52.296;13.260;2022-10-17T11:19:06;6.20;;;2.90;;
19193;SDS011;9729;52.296;13.260;2022-10-17T11:21:39;4.80;;;2.70;;
19193;SDS011;9729;52.296;13.260;2022-10-17T11:24:11;5.77;;;2.53;;
19193;SDS011;9729;52.296;13.260;2022-10-17T11:26:44;4.57;;;3.20;;
19193;SDS011;9729;52.296;13.260;2022-10-17T11:29:15;6.73;;;3.13;;
19193;SDS011;9729;52.296;13.260;2022-10-17T11:31:42;5.60;;;2.47;;
19193;SDS011;9729;52.296;13.260;2022-10-17T11:34:14;5.37;;;2.80;;
19193;SDS011;9729;52.296;13.260;2022-10-17T11:36:44;4.17;;;2.67;;
19193;SDS011;9729;52.296;13.260;2022-10-17T11:39:13;4.43;;;2.40;;
19193;SDS011;9729;52.296;13.260;2022-10-17T11:41:41;5.33;;;2.50;;
19193;SDS011;9729;52.296;13.260;2022-10-17T11:44:13;2.67;;;2.33;;
19193;SDS011;9729;52.296;13.260;2022-10-17T11:46:44;7.00;;;3.10;;
19193;SDS011;9729;52.296;13.260;2022-10-17T11:49:14;4.00;;;2.40;;
19193;SDS011;9729;52.296;13.260;2022-10-17T11:51:44;4.90;;;2.60;;
19193;SDS011;9729;52.296;13.260;2022-10-17T11:54:12;2.87;;;2.43;;
19193;SDS011;9729;52.296;13.260;2022-10-17T11:56:41;5.07;;;3.00;;
19193;SDS011;9729;52.296;13.260;2022-10-17T11:59:32;5.73;;;2.70;;
19193;SDS011;9729;52.296;13.260;2022-10-17T12:02:07;5.27;;;3.00;;
19193;SDS011;9729;52.296;13.260;2022-10-17T12:04:39;3.43;;;2.67;;
19193;SDS011;9729;52.296;13.260;2022-10-17T12:07:13;5.17;;;3.13;;
19193;SDS011;9729;52.296;13.260;2022-10-17T12:09:44;6.53;;;3.07;;
19193;SDS011;9729;52.296;13.260;2022-10-17T12:12:22;3.30;;;2.80;;
19193;SDS011;9729;52.296;13.260;2022-10-17T12:14:50;4.93;;;3.07;;
19193;SDS011;9729;52.296;13.260;2022-10-17T12:20:15;7.83;;;3.17;;
19193;SDS011;9729;52.296;13.260;2022-10-17T12:22:51;9.97;;;2.70;;
19193;SDS011;9729;52.296;13.260;2022-10-17T12:25:20;4.83;;;2.60;;
19193;SDS011;9729;52.296;13.260;2022-10-17T12:27:50;5.43;;;2.70;;
19193;SDS011;9729;52.296;13.260;2022-10-17T12:30:47;5.17;;;2.60;;
19193;SDS011;9729;52.296;13.260;2022-10-17T12:33:16;5.83;;;2.50;;
19193;SDS011;9729;52.296;13.260;2022-10-17T12:35:46;5.27;;;2.70;;
19193;SDS011;9729;52.296;13.260;2022-10-17T12:38:23;5.60;;;2.77;;
19193;SDS011;9729;52.296;13.260;2022-10-17T12:41:00;4.70;;;2.50;;
19193;SDS011;9729;52.296;13.260;2022-10-17T12:49:23;3.60;;;2.50;;
19193;SDS011;9729;52.296;13.260;2022-10-17T12:54:52;6.73;;;2.63;;
19193;SDS011;9729;52.296;13.260;2022-10-17T12:57:21;8.63;;;2.70;;
19193;SDS011;9729;52.296;13.260;2022-10-17T12:59:53;7.93;;;2.30;;
19193;SDS011;9729;52.296;13.260;2022-10-17T13:02:20;8.10;;;2.83;;
19193;SDS011;9729;52.296;13.260;2022-10-17T13:04:49;3.73;;;2.07;;
19193;SDS011;9729;52.296;13.260;2022-10-17T13:07:20;5.87;;;2.60;;
19193;SDS011;9729;52.296;13.260;2022-10-17T13:09:48;6.93;;;2.40;;
19193;SDS011;9729;52.296;13.260;2022-10-17T13:12:17;6.00;;;2.50;;
19193;SDS011;9729;52.296;13.260;2022-10-17T13:14:45;6.90;;;2.57;;
19193;SDS011;9729;52.296;13.260;2022-10-17T13:17:21;12.10;;;2.13;;
19193;SDS011;9729;52.296;13.260;2022-10-17T13:19:49;4.00;;;2.53;;
19193;SDS011;9729;52.296;13.260;2022-10-17T13:22:16;8.20;;;2.37;;
19193;SDS011;9729;52.296;13.260;2022-10-17T13:24:44;7.13;;;2.43;;
19193;SDS011;9729;52.296;13.260;2022-10-17T13:27:22;6.20;;;2.60;;
19193;SDS011;9729;52.296;13.260;2022-10-17T13:29:51;4.63;;;2.10;;
19193;SDS011;9729;52.296;13.260;2022-10-17T13:32:17;4.30;;;2.47;;
19193;SDS011;9729;52.296;13.260;2022-10-17T13:34:45;7.20;;;2.57;;
19193;SDS011;9729;52.296;13.260;2022-10-17T13:37:12;4.20;;;2.43;;
19193;SDS011;9729;52.296;13.260;2022-10-17T13:39:40;5.13;;;2.80;;
19193;SDS011;9729;52.296;13.260;2022-10-17T13:42:13;7.20;;;2.83;;
19193;SDS011;9729;52.296;13.260;2022-10-17T13:44:45;5.37;;;2.93;;
19193;SDS011;9729;52.296;13.260;2022-10-17T13:47:19;4.00;;;2.60;;
19193;SDS011;9729;52.296;13.260;2022-10-17T13:49:47;5.63;;;2.50;;
19193;SDS011;9729;52.296;13.260;2022-10-17T13:52:15;3.60;;;2.40;;
19193;SDS011;9729;52.296;13.260;2022-10-17T13:54:43;6.27;;;2.50;;
19193;SDS011;9729;52.296;13.260;2022-10-17T13:57:16;8.67;;;2.83;;
19193;SDS011;9729;52.296;13.260;2022-10-17T13:59:44;7.10;;;2.57;;
19193;SDS011;9729;52.296;13.260;2022-10-17T14:02:21;12.33;;;3.07;;
19193;SDS011;9729;52.296;13.260;2022-10-17T14:05:01;3.60;;;2.57;;
19193;SDS011;9729;52.296;13.260;2022-10-17T14:07:30;4.00;;;2.70;;
19193;SDS011;9729;52.296;13.260;2022-10-17T14:10:00;6.57;;;2.73;;
19193;SDS011;9729;52.296;13.260;2022-10-17T14:12:30;13.87;;;3.13;;
19193;SDS011;9729;52.296;13.260;2022-10-17T14:14:57;6.13;;;3.10;;
19193;SDS011;9729;52.296;13.260;2022-10-17T14:17:24;7.83;;;2.90;;
19193;SDS011;9729;52.296;13.260;2022-10-17T14:19:53;5.27;;;2.77;;
19193;SDS011;9729;52.296;13.260;2022-10-17T14:22:25;4.30;;;2.97;;
19193;SDS011;9729;52.296;13.260;2022-10-17T14:24:53;4.80;;;2.57;;
19193;SDS011;9729;52.296;13.260;2022-10-17T14:27:24;10.00;;;2.43;;
19193;SDS011;9729;52.296;13.260;2022-10-17T14:29:53;7.83;;;2.80;;
19193;SDS011;9729;52.296;13.260;2022-10-17T14:32:21;8.03;;;3.03;;
19193;SDS011;9729;52.296;13.260;2022-10-17T14:34:51;9.00;;;2.60;;
19193;SDS011;9729;52.296;13.260;2022-10-17T14:37:21;5.47;;;2.97;;
19193;SDS011;9729;52.296;13.260;2022-10-17T14:39:55;9.17;;;3.03;;
19193;SDS011;9729;52.296;13.260;2022-10-17T14:42:24;5.30;;;2.67;;
19193;SDS011;9729;52.296;13.260;2022-10-17T14:44:51;3.67;;;2.30;;
19193;SDS011;9729;52.296;13.260;2022-10-17T14:47:20;4.40;;;2.83;;
19193;SDS011;9729;52.296;13.260;2022-10-17T14:49:48;4.20;;;2.80;;
19193;SDS011;9729;52.296;13.260;2022-10-17T14:52:31;8.00;;;2.87;;
19193;SDS011;9729;52.296;13.260;2022-10-17T14:55:00;2.80;;;2.30;;
19193;SDS011;9729;52.296;13.260;2022-10-17T14:57:43;4.37;;;2.67;;
19193;SDS011;9729;52.296;13.260;2022-10-17T15:00:13;8.53;;;2.67;;
19193;SDS011;9729;52.296;13.260;2022-10-17T15:02:43;5.00;;;2.37;;
19193;SDS011;9729;52.296;13.260;2022-10-17T15:05:10;4.30;;;2.37;;
19193;SDS011;9729;52.296;13.260;2022-10-17T15:07:38;5.43;;;2.10;;
19193;SDS011;9729;52.296;13.260;2022-10-17T15:10:05;5.00;;;2.00;;
19193;SDS011;9729;52.296;13.260;2022-10-17T15:12:31;6.63;;;2.43;;
19193;SDS011;9729;52.296;13.260;2022-10-17T15:14:58;9.37;;;2.70;;